Time;durP1;ratioP1;P1;durP2;ratioP2;P2;SDS_P1;SDS_P2;PMS_P1;PMS_P2;Temp;Humidity;BMP_temperature;BMP_pressure;BME280_temperature;BME280_humidity;BME280_pressure;Samples;Min_cycle;Max_cycle;Signal;HPM_P1;HPM_P2
2021/09/05 00:01:51;;;;;;;13.10;9.25;;;18.50;87.20;;;;;;5017837;28;20056;-86
2021/09/05 00:04:17;;;;;;;14.85;9.30;;;18.50;87.40;;;;;;5020708;28;20456;-86
2021/09/05 00:06:43;;;;;;;15.45;9.38;;;18.50;87.40;;;;;;5057424;28;20032;-86
2021/09/05 00:09:08;;;;;;;14.73;9.65;;;18.50;87.40;;;;;;5040739;28;20028;-85
2021/09/05 00:11:34;;;;;;;16.25;9.60;;;18.40;87.40;;;;;;5040688;28;20028;-86
2021/09/05 00:14:00;;;;;;;13.10;10.10;;;18.40;87.40;;;;;;5040622;28;20033;-86
2021/09/05 00:16:26;;;;;;;15.75;9.80;;;18.40;87.60;;;;;;5023542;28;20032;-86
2021/09/05 00:18:51;;;;;;;15.60;9.23;;;18.30;87.50;;;;;;5021058;28;20021;-86
2021/09/05 00:21:17;;;;;;;13.88;8.85;;;18.30;87.40;;;;;;5036034;28;20025;-85
2021/09/05 00:23:43;;;;;;;15.18;9.05;;;18.30;87.50;;;;;;5057074;28;20094;-85
2021/09/05 00:26:09;;;;;;;13.27;8.85;;;18.30;87.50;;;;;;5040515;28;20063;-86
2021/09/05 00:28:35;;;;;;;15.15;9.27;;;18.20;88.20;;;;;;5021188;28;20489;-85
2021/09/05 00:31:01;;;;;;;14.73;9.52;;;18.20;87.70;;;;;;5036876;28;20017;-86
2021/09/05 00:33:30;;;;;;;14.48;9.38;;;18.20;88.40;;;;;;5054314;28;20100;-86
2021/09/05 00:35:58;;;;;;;12.63;9.52;;;18.20;87.90;;;;;;5030016;28;20361;-85
2021/09/05 00:38:27;;;;;;;15.18;9.68;;;18.10;87.90;;;;;;5023187;28;20457;-85
2021/09/05 00:40:56;;;;;;;17.85;10.25;;;18.10;88.00;;;;;;5036826;28;20025;-87
2021/09/05 00:43:22;;;;;;;17.13;10.15;;;18.10;88.00;;;;;;5020102;28;20029;-86
2021/09/05 00:45:47;;;;;;;14.45;9.75;;;18.10;88.00;;;;;;5020982;28;20032;-83
2021/09/05 00:48:13;;;;;;;17.02;9.57;;;18.10;88.10;;;;;;5020265;28;20373;-83
2021/09/05 00:50:41;;;;;;;16.35;9.80;;;18.00;88.20;;;;;;5036771;28;20377;-86
2021/09/05 00:53:07;;;;;;;13.90;9.45;;;18.00;88.10;;;;;;5054774;28;20036;-86
2021/09/05 00:55:38;;;;;;;16.52;10.10;;;18.00;88.00;;;;;;5021597;28;20496;-85
2021/09/05 00:58:06;;;;;;;;;;;18.00;88.00;;;;;;5028267;28;20082;-86
2021/09/05 01:00:32;;;;;;;14.15;9.32;;;18.00;88.10;;;;;;5054940;28;19932;-86
2021/09/05 01:02:58;;;;;;;15.68;9.52;;;17.90;88.20;;;;;;5023441;28;20088;-86
2021/09/05 01:05:24;;;;;;;15.60;9.88;;;17.90;88.20;;;;;;5040100;28;20025;-86
2021/09/05 01:07:49;;;;;;;16.67;9.90;;;17.90;88.30;;;;;;5021887;28;20032;-86
2021/09/05 01:10:15;;;;;;;14.60;9.45;;;17.80;88.30;;;;;;5021958;28;20092;-86
2021/09/05 01:12:41;;;;;;;15.63;10.18;;;17.80;88.40;;;;;;5017743;28;20032;-86
2021/09/05 01:15:08;;;;;;;15.23;9.65;;;17.80;88.50;;;;;;5042712;28;20037;-86
2021/09/05 01:17:37;;;;;;;15.07;10.05;;;17.80;88.50;;;;;;5037163;28;20025;-86
2021/09/05 01:20:07;;;;;;;14.25;9.75;;;17.70;88.40;;;;;;5054576;28;20029;-86
2021/09/05 01:22:33;;;;;;;15.77;9.02;;;17.70;88.50;;;;;;5053258;28;20057;-85
2021/09/05 01:24:59;;;;;;;18.55;9.30;;;17.70;88.50;;;;;;5053356;28;20037;-86
2021/09/05 01:27:25;;;;;;;16.85;10.38;;;17.70;88.60;;;;;;5030901;28;20033;-85
2021/09/05 01:29:51;;;;;;;16.63;9.88;;;17.70;88.50;;;;;;5054056;28;20032;-85
2021/09/05 01:32:17;;;;;;;15.18;9.85;;;17.60;88.60;;;;;;5007789;28;20124;-85
2021/09/05 01:34:43;;;;;;;16.58;10.43;;;17.60;88.60;;;;;;5020121;28;20413;-85
2021/09/05 01:37:09;;;;;;;15.27;9.10;;;17.60;88.70;;;;;;5032639;28;20029;-86
2021/09/05 01:39:34;;;;;;;16.38;9.68;;;17.50;88.60;;;;;;5019599;28;20033;-86
2021/09/05 01:42:00;;;;;;;15.90;10.13;;;17.50;88.50;;;;;;5036695;28;20025;-85
2021/09/05 01:44:26;;;;;;;17.80;9.35;;;17.50;88.60;;;;;;5029735;28;20024;-85
2021/09/05 01:46:52;;;;;;;14.48;9.43;;;17.50;88.70;;;;;;5050337;28;20500;-85
2021/09/05 01:49:17;;;;;;;16.40;9.32;;;17.40;88.60;;;;;;5048442;28;20369;-85
2021/09/05 01:51:43;;;;;;;13.60;8.57;;;17.40;88.70;;;;;;5035949;28;20029;-86
2021/09/05 01:54:09;;;;;;;18.40;10.88;;;17.40;88.60;;;;;;5019939;28;20029;-85
2021/09/05 01:56:35;;;;;;;15.35;9.07;;;17.40;88.80;;;;;;5036377;28;20030;-85
2021/09/05 01:59:02;;;;;;;12.85;9.23;;;17.40;88.80;;;;;;5036287;28;20098;-85
2021/09/05 02:01:29;;;;;;;14.75;8.98;;;17.30;88.90;;;;;;5020121;28;20029;-84
2021/09/05 02:03:56;;;;;;;16.13;9.73;;;17.30;89.10;;;;;;5041949;28;20029;-85
2021/09/05 02:06:22;;;;;;;13.30;9.20;;;17.30;89.00;;;;;;5054279;28;20036;-85
2021/09/05 02:08:48;;;;;;;14.88;9.07;;;17.20;89.00;;;;;;5042505;28;20010;-84
2021/09/05 02:11:15;;;;;;;19.20;10.10;;;17.20;89.10;;;;;;5064209;28;20070;-86
2021/09/05 02:13:47;;;;;;;15.82;9.43;;;17.20;89.10;;;;;;5062452;28;20025;-85
2021/09/05 02:16:13;;;;;;;16.05;9.93;;;17.20;89.20;;;;;;5042830;28;20025;-86
2021/09/05 02:18:38;;;;;;;20.50;9.35;;;17.20;89.30;;;;;;5061351;28;20021;-93
2021/09/05 02:21:04;;;;;;;17.58;9.52;;;17.20;89.40;;;;;;5045716;28;20018;-92
2021/09/05 02:23:30;;;;;;;17.25;9.50;;;17.10;89.40;;;;;;5036275;28;20045;-84
2021/09/05 02:25:56;;;;;;;13.88;9.43;;;17.10;89.60;;;;;;5025850;28;20026;-87
2021/09/05 02:28:22;;;;;;;16.23;9.43;;;17.10;89.60;;;;;;5004091;28;20026;-85
2021/09/05 02:30:47;;;;;;;17.35;10.40;;;17.10;89.70;;;;;;4984282;28;20364;-85
2021/09/05 02:33:13;;;;;;;17.35;10.50;;;17.10;89.70;;;;;;5018090;28;20029;-85
2021/09/05 02:35:39;;;;;;;18.55;10.45;;;17.00;89.70;;;;;;5019830;28;20021;-85
2021/09/05 02:38:05;;;;;;;15.57;9.63;;;17.00;89.80;;;;;;4987065;28;20101;-85
2021/09/05 02:40:30;;;;;;;15.18;9.52;;;17.00;89.70;;;;;;5002975;28;20021;-85
2021/09/05 02:42:56;;;;;;;15.15;9.48;;;16.90;89.70;;;;;;5019453;28;20033;-85
2021/09/05 02:45:22;;;;;;;15.73;10.05;;;16.90;89.80;;;;;;5016558;28;20378;-85
2021/09/05 02:47:47;;;;;;;16.50;9.32;;;16.90;89.70;;;;;;5018571;28;20127;-85
2021/09/05 02:50:13;;;;;;;14.38;9.50;;;16.90;89.70;;;;;;5002699;28;20076;-85
2021/09/05 02:52:39;;;;;;;14.70;9.88;;;16.90;89.80;;;;;;5002780;28;20025;-85
2021/09/05 02:55:05;;;;;;;16.05;9.82;;;16.90;89.90;;;;;;5016829;28;20030;-89
2021/09/05 02:57:30;;;;;;;15.90;9.77;;;16.80;89.70;;;;;;5002398;28;20068;-85
2021/09/05 02:59:56;;;;;;;14.52;9.57;;;16.80;89.90;;;;;;5020471;28;20033;-86
2021/09/05 03:02:22;;;;;;;18.20;10.57;;;16.80;90.20;;;;;;5035924;28;20021;-85
2021/09/05 03:04:47;;;;;;;15.73;9.63;;;16.70;89.90;;;;;;4988527;28;20038;-85
2021/09/05 03:07:13;;;;;;;14.70;9.18;;;16.70;90.00;;;;;;5002658;28;20035;-85
2021/09/05 03:09:40;;;;;;;14.82;9.63;;;16.70;90.00;;;;;;5022731;28;20033;-85
2021/09/05 03:12:06;;;;;;;14.65;9.55;;;16.70;90.30;;;;;;5001656;28;20025;-92
2021/09/05 03:14:31;;;;;;;14.52;9.75;;;16.70;90.10;;;;;;5001695;28;20377;-86
2021/09/05 03:16:57;;;;;;;14.60;9.48;;;16.60;90.10;;;;;;5017383;28;20041;-86
2021/09/05 03:19:23;;;;;;;14.82;10.00;;;16.60;90.10;;;;;;5017618;28;20040;-85
2021/09/05 03:21:49;;;;;;;14.00;9.55;;;16.60;90.10;;;;;;5029343;28;20033;-85
2021/09/05 03:24:15;;;;;;;15.95;9.10;;;16.60;90.20;;;;;;5040573;28;20071;-85
2021/09/05 03:26:41;;;;;;;16.65;10.02;;;16.60;90.20;;;;;;5054867;28;20037;-85
2021/09/05 03:29:06;;;;;;;14.48;9.40;;;16.50;90.20;;;;;;5061835;28;20036;-85
2021/09/05 03:31:32;;;;;;;17.33;9.32;;;16.50;90.20;;;;;;4998582;28;20375;-85
2021/09/05 03:33:58;;;;;;;15.88;9.95;;;16.50;90.30;;;;;;5022972;28;20025;-85
2021/09/05 03:36:24;;;;;;;17.25;10.00;;;16.50;90.20;;;;;;5040902;28;20064;-85
2021/09/05 03:38:49;;;;;;;15.45;9.38;;;16.50;90.30;;;;;;5025312;28;20048;-85
2021/09/05 03:41:15;;;;;;;14.25;9.65;;;16.40;90.30;;;;;;5000831;28;20025;-85
2021/09/05 03:43:41;;;;;;;17.27;10.15;;;16.40;90.30;;;;;;5042804;28;20043;-89
2021/09/05 03:46:07;;;;;;;15.07;9.77;;;16.40;90.30;;;;;;5013544;28;20032;-85
2021/09/05 03:48:32;;;;;;;14.77;9.32;;;16.40;90.30;;;;;;5045140;28;20028;-85
2021/09/05 03:50:59;;;;;;;15.98;9.73;;;16.40;90.30;;;;;;5025070;28;20028;-85
2021/09/05 03:53:26;;;;;;;14.68;9.40;;;16.30;90.30;;;;;;5057333;28;20028;-85
2021/09/05 03:55:52;;;;;;;14.05;9.57;;;16.30;90.40;;;;;;5040845;28;20116;-85
2021/09/05 03:58:18;;;;;;;13.65;9.25;;;16.30;90.30;;;;;;5037327;28;20021;-85
2021/09/05 04:00:43;;;;;;;16.13;10.05;;;16.30;90.30;;;;;;5023283;28;20032;-86
2021/09/05 04:03:09;;;;;;;15.82;10.02;;;16.20;90.40;;;;;;5004678;28;20045;-85
2021/09/05 04:05:35;;;;;;;15.32;9.85;;;16.20;90.40;;;;;;5032881;28;20032;-86
2021/09/05 04:08:13;;;;;;;15.13;9.43;;;16.20;90.50;;;;;;5036116;28;20379;-86
2021/09/05 04:10:40;;;;;;;16.13;9.32;;;16.20;90.50;;;;;;5022552;28;20025;-85
2021/09/05 04:13:06;;;;;;;16.92;9.50;;;16.20;90.50;;;;;;5037444;28;20032;-85
2021/09/05 04:15:32;;;;;;;13.23;9.27;;;16.10;90.50;;;;;;5042727;28;20021;-85
2021/09/05 04:17:58;;;;;;;14.75;9.75;;;16.10;90.50;;;;;;5026183;28;20369;-85
2021/09/05 04:20:24;;;;;;;17.15;9.98;;;16.10;90.60;;;;;;5033945;28;20104;-86
2021/09/05 04:22:50;;;;;;;16.17;9.02;;;16.10;90.60;;;;;;5036792;28;20068;-85
2021/09/05 04:25:16;;;;;;;15.27;9.57;;;16.00;90.60;;;;;;5034707;28;20036;-85
2021/09/05 04:27:42;;;;;;;13.43;9.60;;;16.00;90.60;;;;;;5047960;28;20020;-85
2021/09/05 04:30:11;;;;;;;18.40;10.32;;;16.00;90.70;;;;;;5040396;28;20465;-85
2021/09/05 04:32:39;;;;;;;15.10;9.65;;;16.00;90.70;;;;;;5056467;28;20042;-85
2021/09/05 04:35:06;;;;;;;16.48;10.43;;;15.90;90.70;;;;;;5055673;28;20052;-84
2021/09/05 04:37:32;;;;;;;17.98;9.70;;;15.90;90.70;;;;;;5037190;28;20017;-85
2021/09/05 04:39:58;;;;;;;13.10;9.55;;;15.90;90.80;;;;;;5042435;28;20028;-86
2021/09/05 04:42:24;;;;;;;14.68;10.10;;;15.90;90.80;;;;;;5058515;28;20039;-87
2021/09/05 04:44:52;;;;;;;15.40;9.80;;;15.80;91.10;;;;;;5068706;28;20024;-85
2021/09/05 04:47:19;;;;;;;14.40;8.90;;;15.80;90.80;;;;;;5044984;28;20025;-87
2021/09/05 04:49:44;;;;;;;16.38;9.93;;;15.80;90.80;;;;;;5056148;28;20028;-84
2021/09/05 04:52:10;;;;;;;15.32;9.73;;;15.80;90.90;;;;;;5042219;28;20080;-88
2021/09/05 04:54:36;;;;;;;14.40;9.60;;;15.70;90.80;;;;;;5067977;28;20048;-84
2021/09/05 04:57:03;;;;;;;15.70;9.73;;;15.70;90.90;;;;;;5040089;28;20021;-84
2021/09/05 04:59:28;;;;;;;17.23;9.82;;;15.70;91.00;;;;;;5023330;28;20025;-84
2021/09/05 05:01:54;;;;;;;17.05;9.52;;;15.70;91.00;;;;;;5020174;28;20021;-84
2021/09/05 05:04:20;;;;;;;15.65;9.05;;;15.70;91.00;;;;;;5039159;28;20053;-84
2021/09/05 05:06:45;;;;;;;14.20;9.10;;;15.70;91.00;;;;;;5000234;28;20025;-84
2021/09/05 05:09:14;;;;;;;13.30;8.88;;;15.60;91.00;;;;;;5049330;28;20453;-85
2021/09/05 05:11:40;;;;;;;15.50;9.48;;;15.60;91.10;;;;;;5036719;28;20082;-85
2021/09/05 05:14:06;;;;;;;15.82;8.98;;;15.60;91.10;;;;;;5020595;28;20037;-85
2021/09/05 05:16:31;;;;;;;15.98;9.02;;;15.60;91.10;;;;;;5036271;28;20104;-85
2021/09/05 05:18:57;;;;;;;15.25;9.30;;;15.50;91.10;;;;;;5053200;28;20112;-85
2021/09/05 05:21:27;;;;;;;13.70;8.05;;;15.50;91.00;;;;;;5040686;28;20074;-85
2021/09/05 05:23:54;;;;;;;11.57;8.00;;;15.50;91.10;;;;;;5019630;28;20489;-85
2021/09/05 05:26:19;;;;;;;15.18;9.20;;;15.50;91.20;;;;;;5053733;28;20025;-90
2021/09/05 05:28:45;;;;;;;14.68;8.70;;;15.40;91.20;;;;;;5019854;28;20112;-85
2021/09/05 05:31:11;;;;;;;15.85;8.50;;;15.40;91.20;;;;;;5036264;28;20029;-85
2021/09/05 05:33:37;;;;;;;13.52;8.30;;;15.40;91.30;;;;;;5036169;28;20037;-85
2021/09/05 05:36:02;;;;;;;16.20;9.27;;;15.40;91.30;;;;;;5019157;28;20127;-85
2021/09/05 05:38:28;;;;;;;16.80;9.32;;;15.40;91.40;;;;;;5019498;28;20121;-85
2021/09/05 05:40:54;;;;;;;14.60;9.10;;;15.40;91.40;;;;;;5036396;28;20021;-85
2021/09/05 05:43:20;;;;;;;17.67;9.02;;;15.40;91.50;;;;;;5036226;28;20075;-88
2021/09/05 05:45:45;;;;;;;15.70;9.15;;;15.40;91.50;;;;;;5025888;28;20034;-84
2021/09/05 05:48:12;;;;;;;14.65;8.70;;;15.40;91.60;;;;;;5066341;28;20031;-87
2021/09/05 05:50:38;;;;;;;13.82;9.52;;;15.40;91.60;;;;;;5059891;28;20011;-86
2021/09/05 05:53:04;;;;;;;13.45;9.00;;;15.40;91.60;;;;;;5064508;28;20029;-86
2021/09/05 05:55:30;;;;;;;15.45;9.07;;;15.40;91.70;;;;;;5030022;28;20032;-86
2021/09/05 05:57:56;;;;;;;14.07;9.02;;;15.40;91.70;;;;;;5046020;28;20029;-85
2021/09/05 06:00:25;;;;;;;14.25;9.18;;;15.40;91.70;;;;;;5062268;28;20077;-94
2021/09/05 06:02:52;;;;;;;14.32;9.18;;;15.40;91.80;;;;;;5065451;28;20041;-85
2021/09/05 06:05:18;;;;;;;14.35;9.48;;;15.40;91.80;;;;;;5050885;28;20044;-85
2021/09/05 06:07:43;;;;;;;14.30;8.98;;;15.40;91.80;;;;;;5024098;28;20017;-85
2021/09/05 06:10:10;;;;;;;14.90;9.15;;;15.40;91.80;;;;;;5043787;28;20032;-85
2021/09/05 06:12:35;;;;;;;17.27;9.63;;;15.40;91.90;;;;;;5046852;28;20032;-85
2021/09/05 06:15:02;;;;;;;15.43;8.77;;;15.40;91.90;;;;;;5025266;28;20021;-85
2021/09/05 06:17:27;;;;;;;13.93;8.80;;;15.50;91.80;;;;;;5031952;28;20033;-85
2021/09/05 06:19:53;;;;;;;14.80;8.95;;;15.50;91.80;;;;;;5039819;28;20088;-84
2021/09/05 06:22:19;;;;;;;14.68;8.90;;;15.50;91.80;;;;;;5039725;28;20032;-85
2021/09/05 06:24:44;;;;;;;13.55;9.05;;;15.50;91.80;;;;;;5021262;28;20061;-85
2021/09/05 06:27:10;;;;;;;13.43;8.93;;;15.50;91.80;;;;;;4990301;28;20029;-85
2021/09/05 06:29:36;;;;;;;13.85;9.10;;;15.50;91.80;;;;;;5009103;28;20026;-86
2021/09/05 06:32:01;;;;;;;14.10;9.02;;;15.50;91.70;;;;;;5003481;28;20474;-86
2021/09/05 06:34:27;;;;;;;16.13;9.18;;;15.50;91.70;;;;;;5046955;28;20033;-85
2021/09/05 06:36:53;;;;;;;14.18;8.82;;;15.60;91.70;;;;;;5019327;28;20381;-85
2021/09/05 06:39:18;;;;;;;13.30;9.02;;;15.60;91.70;;;;;;4985045;28;20018;-84
2021/09/05 06:41:44;;;;;;;18.02;9.43;;;15.60;91.60;;;;;;5001298;28;20051;-85
2021/09/05 06:44:10;;;;;;;13.18;8.35;;;15.60;91.50;;;;;;5018246;28;20474;-85
2021/09/05 06:46:35;;;;;;;14.75;8.18;;;15.60;91.50;;;;;;5018397;28;20029;-85
2021/09/05 06:49:01;;;;;;;14.68;9.27;;;15.60;91.50;;;;;;5017355;28;20478;-84
2021/09/05 06:51:27;;;;;;;13.55;8.50;;;15.70;91.50;;;;;;5001853;28;20021;-90
2021/09/05 06:53:52;;;;;;;14.05;8.88;;;15.70;91.60;;;;;;5017700;28;20041;-85
2021/09/05 06:56:18;;;;;;;12.98;8.13;;;15.70;91.60;;;;;;5001508;28;20029;-85
2021/09/05 06:58:44;;;;;;;12.63;8.38;;;15.70;91.60;;;;;;5017832;28;20037;-85
2021/09/05 07:01:09;;;;;;;16.05;9.20;;;15.70;91.60;;;;;;4995638;28;20466;-84
2021/09/05 07:03:35;;;;;;;12.65;8.15;;;15.70;91.60;;;;;;4993981;28;20068;-86
2021/09/05 07:06:01;;;;;;;15.38;8.35;;;15.80;91.60;;;;;;5002089;28;20478;-86
2021/09/05 07:08:26;;;;;;;12.38;8.18;;;15.80;91.60;;;;;;5018611;28;20029;-86
2021/09/05 07:10:52;;;;;;;14.90;8.88;;;15.80;91.60;;;;;;5018093;28;20034;-85
2021/09/05 07:13:18;;;;;;;13.43;8.57;;;15.90;91.60;;;;;;5002518;28;20480;-85
2021/09/05 07:15:43;;;;;;;12.65;7.90;;;15.90;91.60;;;;;;5002520;28;20029;-85
2021/09/05 07:18:09;;;;;;;11.48;7.88;;;15.90;91.60;;;;;;5002271;28;20037;-84
2021/09/05 07:20:34;;;;;;;13.10;8.52;;;15.90;91.60;;;;;;5018392;28;20033;-84
2021/09/05 07:23:00;;;;;;;13.88;9.10;;;16.00;91.60;;;;;;5017467;28;20104;-86
2021/09/05 07:25:27;;;;;;;12.85;7.95;;;16.00;91.60;;;;;;5017990;28;20033;-85
2021/09/05 07:27:53;;;;;;;13.55;8.65;;;16.00;91.60;;;;;;5000572;28;20441;-85
2021/09/05 07:30:19;;;;;;;12.05;8.20;;;16.10;91.50;;;;;;5035743;28;20025;-86
2021/09/05 07:32:45;;;;;;;12.07;7.40;;;16.10;91.50;;;;;;5012870;28;20029;-85
2021/09/05 07:35:11;;;;;;;11.50;7.60;;;16.10;91.50;;;;;;5017890;28;20121;-83
2021/09/05 07:37:37;;;;;;;11.05;7.60;;;16.20;91.50;;;;;;5013972;28;20124;-84
2021/09/05 07:40:05;;;;;;;13.23;8.15;;;16.20;91.50;;;;;;5010209;28;20137;-84
2021/09/05 07:42:32;;;;;;;10.73;7.32;;;16.30;91.50;;;;;;5017526;28;20485;-84
2021/09/05 07:44:58;;;;;;;11.43;7.32;;;16.30;91.50;;;;;;5011438;28;20025;-84
2021/09/05 07:47:24;;;;;;;11.57;7.82;;;16.30;91.80;;;;;;4990915;28;20535;-85
2021/09/05 07:49:50;;;;;;;14.02;8.60;;;16.40;91.60;;;;;;5008203;28;20478;-84
2021/09/05 07:52:16;;;;;;;11.35;7.47;;;16.40;91.40;;;;;;5001607;28;20033;-84
2021/09/05 07:54:42;;;;;;;11.70;8.10;;;16.50;91.30;;;;;;4998495;28;20076;-85
2021/09/05 07:57:07;;;;;;;13.25;8.18;;;16.50;91.20;;;;;;5018238;28;20076;-84
2021/09/05 07:59:33;;;;;;;11.68;7.90;;;16.60;91.10;;;;;;5002942;28;20029;-90
2021/09/05 08:01:59;;;;;;;11.88;7.13;;;16.60;91.10;;;;;;5001777;28;20061;-84
2021/09/05 08:04:25;;;;;;;13.15;7.78;;;16.60;91.10;;;;;;5001697;28;20026;-84
2021/09/05 08:06:50;;;;;;;11.30;7.72;;;16.70;91.10;;;;;;4983909;28;20056;-84
2021/09/05 08:09:16;;;;;;;12.40;6.95;;;16.80;91.00;;;;;;5009600;28;20052;-83
2021/09/05 08:11:41;;;;;;;12.38;7.20;;;16.80;91.00;;;;;;5026094;28;20022;-84
2021/09/05 08:14:07;;;;;;;10.52;7.15;;;16.90;91.00;;;;;;5021080;28;20033;-84
2021/09/05 08:16:33;;;;;;;10.98;6.97;;;16.90;91.00;;;;;;4998238;28;20029;-84
2021/09/05 08:18:59;;;;;;;10.10;6.65;;;17.00;91.10;;;;;;5033102;28;20084;-84
2021/09/05 08:21:25;;;;;;;11.45;7.35;;;17.10;91.00;;;;;;5000215;28;20026;-87
2021/09/05 08:23:51;;;;;;;10.45;7.40;;;17.10;91.00;;;;;;5017319;28;20417;-78
2021/09/05 08:26:18;;;;;;;10.05;7.07;;;17.20;90.90;;;;;;5004979;28;20184;-78
2021/09/05 08:28:43;;;;;;;12.13;7.13;;;17.30;90.80;;;;;;5025137;28;20052;-78
2021/09/05 08:31:09;;;;;;;12.45;7.95;;;17.40;90.80;;;;;;5026125;28;20021;-79
2021/09/05 08:33:35;;;;;;;13.20;7.45;;;17.50;90.80;;;;;;5047173;28;20071;-78
2021/09/05 08:36:03;;;;;;;9.57;6.55;;;17.50;90.70;;;;;;5023575;28;20025;-79
2021/09/05 08:38:28;;;;;;;11.15;6.63;;;17.60;90.70;;;;;;5005280;28;20377;-77
2021/09/05 08:40:54;;;;;;;9.63;6.60;;;17.70;90.70;;;;;;5053777;28;20032;-77
2021/09/05 08:43:20;;;;;;;11.43;6.65;;;17.80;90.80;;;;;;5025172;28;20044;-84
2021/09/05 08:45:48;;;;;;;10.73;7.30;;;17.90;90.80;;;;;;5020979;28;20120;-85
2021/09/05 08:48:15;;;;;;;9.73;6.70;;;18.00;90.90;;;;;;5037516;28;20083;-86
2021/09/05 08:50:42;;;;;;;8.30;5.97;;;18.00;90.90;;;;;;5020668;28;20088;-86
2021/09/05 08:53:07;;;;;;;13.80;7.60;;;18.10;91.00;;;;;;5056304;28;20036;-85
2021/09/05 08:55:33;;;;;;;8.60;6.00;;;18.20;91.10;;;;;;5039070;28;20348;-85
2021/09/05 08:57:59;;;;;;;9.90;6.18;;;18.30;91.10;;;;;;5039520;28;20772;-86
2021/09/05 09:00:26;;;;;;;10.85;7.10;;;18.40;91.10;;;;;;5050861;28;20071;-87
2021/09/05 09:02:57;;;;;;;8.60;6.32;;;18.50;91.10;;;;;;5028704;28;20010;-87
2021/09/05 09:05:36;;;;;;;9.73;6.25;;;18.60;91.10;;;;;;5045353;28;20443;-86
2021/09/05 09:08:13;;;;;;;9.68;7.07;;;18.60;91.10;;;;;;5065713;28;20036;-84
2021/09/05 09:10:50;;;;;;;11.55;6.93;;;18.70;91.00;;;;;;5070155;28;20456;-87
2021/09/05 09:13:40;;;;;;;10.35;6.93;;;18.80;91.00;;;;;;5069741;28;20031;-90
2021/09/05 09:16:08;;;;;;;10.63;6.87;;;18.90;91.10;;;;;;5057094;28;20013;-91
2021/09/05 09:18:36;;;;;;;10.73;6.80;;;19.00;91.10;;;;;;5057623;28;20009;-89
2021/09/05 09:21:05;;;;;;;11.68;7.32;;;19.10;91.10;;;;;;5055836;28;20508;-88
2021/09/05 09:23:36;;;;;;;10.30;6.32;;;19.20;91.00;;;;;;5030085;28;20053;-89
2021/09/05 09:26:03;;;;;;;;;;;19.30;91.00;;;;;;5037187;28;20102;-90
2021/09/05 09:28:31;;;;;;;9.48;6.22;;;19.30;91.10;;;;;;5027596;28;20346;-87
2021/09/05 09:31:00;;;;;;;10.75;6.40;;;19.40;91.00;;;;;;5036997;28;20044;-90
2021/09/05 09:33:27;;;;;;;10.15;6.85;;;19.50;91.00;;;;;;5052971;28;20013;-90
2021/09/05 09:35:58;;;;;;;8.98;6.03;;;19.50;90.90;;;;;;5035432;28;20022;-89
2021/09/05 09:38:24;;;;;;;;;;;19.60;90.90;;;;;;5050760;28;20420;-89
2021/09/05 09:40:50;;;;;;;11.63;6.82;;;19.70;90.80;;;;;;5031627;28;19901;-89
2021/09/05 09:43:18;;;;;;;9.55;6.60;;;19.70;90.70;;;;;;5016420;28;20089;-89
2021/09/05 09:45:44;;;;;;;9.65;6.20;;;19.80;90.60;;;;;;5035656;28;20036;-87
2021/09/05 09:48:09;;;;;;;9.82;6.68;;;19.90;90.50;;;;;;5011378;28;20034;-86
2021/09/05 09:50:42;;;;;;;9.43;6.35;;;19.90;90.40;;;;;;5025397;28;20408;-88
2021/09/05 09:53:08;;;;;;;12.43;6.53;;;20.00;90.30;;;;;;5028173;28;20035;-88
2021/09/05 09:55:39;;;;;;;9.98;6.70;;;20.10;90.30;;;;;;5048286;28;20026;-89
2021/09/05 09:58:06;;;;;;;;;;;20.20;90.30;;;;;;5015633;28;20458;-89
2021/09/05 10:00:32;;;;;;;10.48;6.13;;;20.30;90.20;;;;;;5033420;28;19901;-89
2021/09/05 10:03:00;;;;;;;9.52;6.28;;;20.30;90.00;;;;;;5027354;28;20033;-89
2021/09/05 10:05:26;;;;;;;8.63;5.97;;;20.40;89.70;;;;;;5038479;28;20030;-88
2021/09/05 10:07:54;;;;;;;8.98;6.07;;;20.40;88.40;;;;;;5039008;28;20012;-92
2021/09/05 10:10:21;;;;;;;9.20;5.60;;;20.50;88.00;;;;;;5053705;28;20048;-87
2021/09/05 10:12:48;;;;;;;9.73;5.78;;;20.50;87.80;;;;;;5003562;28;20025;-92
2021/09/05 10:15:13;;;;;;;8.18;5.03;;;20.60;87.90;;;;;;4998497;28;20499;-88
2021/09/05 10:17:39;;;;;;;9.48;5.72;;;20.70;87.80;;;;;;5003271;28;20025;-92
2021/09/05 10:20:06;;;;;;;9.80;6.57;;;20.80;87.80;;;;;;5018725;28;20520;-88
2021/09/05 10:22:32;;;;;;;14.45;6.40;;;20.80;87.30;;;;;;5015249;28;20101;-88
2021/09/05 10:25:03;;;;;;;10.02;5.85;;;20.90;87.10;;;;;;4995863;28;20089;-88
2021/09/05 10:27:39;;;;;;;9.05;5.60;;;21.00;86.90;;;;;;5008285;28;20026;-89
2021/09/05 10:30:07;;;;;;;9.40;5.43;;;21.10;86.60;;;;;;5011213;28;20068;-88
2021/09/05 10:32:58;;;;;;;9.10;5.97;;;21.10;86.20;;;;;;5009483;28;20026;-88
2021/09/05 10:35:37;;;;;;;8.53;5.57;;;21.20;86.40;;;;;;5020178;28;20024;-87
2021/09/05 10:38:09;;;;;;;9.07;5.40;;;21.30;86.60;;;;;;5038413;28;20268;-88
2021/09/05 10:41:05;;;;;;;8.70;5.20;;;21.40;87.00;;;;;;5021018;28;20504;-88
2021/09/05 10:43:49;;;;;;;8.75;5.65;;;21.40;85.20;;;;;;5018102;28;20041;-88
2021/09/05 10:46:16;;;;;;;8.20;5.43;;;21.50;85.20;;;;;;5018897;28;20022;-88
2021/09/05 10:48:47;;;;;;;11.23;6.63;;;21.60;85.10;;;;;;5000348;28;20030;-87
2021/09/05 10:51:15;;;;;;;9.88;6.38;;;21.60;85.20;;;;;;4996722;28;20029;-87
2021/09/05 10:54:06;;;;;;;8.93;6.30;;;21.70;85.30;;;;;;5005255;28;20099;-88
2021/09/05 10:56:33;;;;;;;9.32;6.07;;;21.80;83.30;;;;;;5037522;28;20466;-88
2021/09/05 10:58:59;;;;;;;9.15;5.57;;;21.80;83.50;;;;;;5016816;28;20033;-88
2021/09/05 11:01:32;;;;;;;10.63;5.93;;;21.90;83.80;;;;;;4992108;28;20084;-88
2021/09/05 11:04:14;;;;;;;10.13;6.00;;;22.00;84.10;;;;;;5011724;28;20120;-88
2021/09/05 11:06:48;;;;;;;9.25;6.03;;;22.00;84.30;;;;;;5019461;28;20096;-88
2021/09/05 11:09:20;;;;;;;9.35;5.82;;;22.10;84.00;;;;;;5036526;28;20032;-88
2021/09/05 11:12:14;;;;;;;9.88;6.45;;;22.20;83.70;;;;;;5019323;28;20029;-90
2021/09/05 11:17:19;;;;;;;8.68;5.57;;;22.30;82.80;;;;;;5035233;28;20041;-87
2021/09/05 11:19:49;;;;;;;9.77;5.93;;;22.40;82.40;;;;;;5016094;28;20025;-87
2021/09/05 11:22:20;;;;;;;7.65;5.60;;;22.50;81.80;;;;;;5009827;28;20014;-88
2021/09/05 11:24:47;;;;;;;9.20;5.72;;;22.50;82.60;;;;;;5036796;28;20045;-85
2021/09/05 11:27:14;;;;;;;8.82;5.85;;;22.60;81.60;;;;;;5039442;28;20025;-86
2021/09/05 11:29:41;;;;;;;7.72;5.55;;;22.70;81.60;;;;;;5038809;28;20029;-86
2021/09/05 11:32:10;;;;;;;8.82;5.80;;;22.80;81.30;;;;;;5039169;28;20082;-86
2021/09/05 11:34:38;;;;;;;9.95;6.05;;;22.90;81.70;;;;;;5038448;28;20025;-86
2021/09/05 11:37:04;;;;;;;10.10;6.53;;;22.90;81.20;;;;;;5038468;28;20026;-86
2021/09/05 11:39:31;;;;;;;9.88;6.57;;;23.00;80.50;;;;;;5032911;28;20052;-86
2021/09/05 11:42:02;;;;;;;8.02;5.65;;;23.10;80.50;;;;;;5017577;28;20091;-86
2021/09/05 11:44:36;;;;;;;7.50;5.82;;;23.20;79.80;;;;;;5018284;28;20029;-86
2021/09/05 11:47:09;;;;;;;9.35;6.20;;;23.20;79.20;;;;;;5036715;28;20029;-86
2021/09/05 11:49:55;;;;;;;7.80;5.47;;;23.30;78.80;;;;;;5023945;28;20017;-87
2021/09/05 11:52:26;;;;;;;8.15;5.97;;;23.40;78.80;;;;;;5040443;28;20041;-88
2021/09/05 11:55:05;;;;;;;9.75;6.13;;;23.50;78.00;;;;;;5038299;28;20124;-88
2021/09/05 11:57:33;;;;;;;10.43;6.28;;;23.60;77.30;;;;;;5056341;28;20055;-88
2021/09/05 12:00:03;;;;;;;9.10;6.28;;;23.60;77.40;;;;;;5018643;28;20041;-89
2021/09/05 12:02:34;;;;;;;9.70;6.50;;;23.70;77.20;;;;;;5038358;28;20366;-87
2021/09/05 12:05:01;;;;;;;9.95;6.45;;;23.80;76.40;;;;;;5022174;28;20038;-88
2021/09/05 12:07:31;;;;;;;8.02;5.95;;;23.80;76.00;;;;;;5053113;28;20021;-88
2021/09/05 12:10:40;;;;;;;9.75;6.63;;;23.90;75.70;;;;;;5049279;28;20029;-87
2021/09/05 12:13:06;;;;;;;10.05;6.38;;;24.00;73.70;;;;;;5026709;28;20062;-87
2021/09/05 12:15:48;;;;;;;10.15;6.50;;;24.10;74.40;;;;;;5053690;28;20028;-88
2021/09/05 12:18:21;;;;;;;9.80;6.75;;;24.10;73.30;;;;;;5046541;28;20018;-88
2021/09/05 12:20:50;;;;;;;8.55;6.10;;;24.20;72.50;;;;;;5052231;28;20096;-90
2021/09/05 12:23:31;;;;;;;10.98;6.10;;;24.20;72.20;;;;;;5067069;28;20060;-89
2021/09/05 12:26:01;;;;;;;9.07;5.57;;;24.30;72.60;;;;;;5045399;28;20017;-89
2021/09/05 12:28:29;;;;;;;9.20;6.70;;;24.40;72.80;;;;;;5040618;28;20084;-88
2021/09/05 12:30:57;;;;;;;10.95;6.82;;;24.50;72.10;;;;;;5030419;28;20045;-88
2021/09/05 12:33:25;;;;;;;9.88;6.70;;;24.60;72.70;;;;;;5036921;28;20020;-88
2021/09/05 12:35:53;;;;;;;8.10;6.10;;;24.60;72.00;;;;;;5060729;28;20017;-87
2021/09/05 12:38:25;;;;;;;8.85;6.20;;;24.70;71.50;;;;;;5043412;28;20108;-87
2021/09/05 12:40:52;;;;;;;8.15;6.25;;;24.80;71.40;;;;;;5037174;28;20120;-88
2021/09/05 12:43:41;;;;;;;9.50;6.38;;;24.90;72.20;;;;;;5003598;28;20044;-88
2021/09/05 12:46:07;;;;;;;8.95;6.15;;;24.90;71.20;;;;;;5036882;28;20040;-87